메인 페이지
METAR-TAF:

METAR-TAF

공항 :

지브롤터 공항

지브롤터, 지브롤터

위도: 36-09N, 경도: 005-21W, 고도: 5m

현재 날씨관측

예보는 57분 전, 08:50시(UTC)에 발표되었습니다.
13kt
온도 18°C
습도 56%
기압 1015 hPa
시정 10km 이상
고도 5000ft 상공 구름 조금
고도 25000ft 상공 구름 보통

METAR: LXGB 150850Z 27013KT 9999 FEW050 SCT250 18/09 Q1015 NOSIG

시각: 11:47 (09:47 UTC)

예보

예보는 2 시간 10분 전, 07:37시(UTC)에 발표되었습니다.
예보 대상 시간: 15일 09시부터 15일 18시까지 (UTC)
15kt
시정 10km 이상
고도 4500ft 상공 구름 조금
전환 중
15일 12시부터 15일 16시까지 (UTC)
서남서17kt, 순간 최대 풍속 27kt
고도 2400ft 상공 구름 많음

TAF: LXGB 150737Z 1509/1518 26015KT 9999 FEW045 BECMG 1512/1516 25017G27KT BKN024

4,000개 이상의 공항 관측 자료 및 예보 (METAR 및 TAF 보고).

지도상에서 검색 가능한 기상관측소가 노란 점과 빨간 점으로 표시되어 있습니다.

기상관측소 명을 보려면 표시 위로 마우스를 이동하세요.

날씨 관측과 예보를 보려면 클릭하세요.

지도 변경 : 확대하려면 엑스 표시가 있는 녹색 버튼, 축소하려면 빼기 표시가 있는 녹색 버튼, 다음 페이지의 지도를 보려면 녹색 화살표를 클릭하세요.


METAR-TAF: